Time;durP1;ratioP1;P1;durP2;ratioP2;P2;SDS_P1;SDS_P2;PMS_P1;PMS_P2;Temp;Humidity;BMP_temperature;BMP_pressure;BME280_temperature;BME280_humidity;BME280_pressure;Samples;Min_cycle;Max_cycle;Signal;HPM_P1;HPM_P2
2021/04/07 00:04:17;;;;;;;2.90;1.77;;;;;;;;;;4960684;28;20042;-59
2021/04/07 00:10:12;;;;;;;2.90;2.07;;;;;;;;;;5057689;28;20068;-58
2021/04/07 00:12:45;;;;;;;3.10;1.93;;;;;;;;;;5061262;28;20051;-59
2021/04/07 00:15:37;;;;;;;2.30;1.37;;;;;;;;;;5061804;28;20021;-58
2021/04/07 00:18:45;;;;;;;3.20;2.50;;;;;;;;;;5011072;28;20045;-59
2021/04/07 00:21:32;;;;;;;3.20;1.80;;;;;;;;;;5018022;28;20026;-58
2021/04/07 00:24:11;;;;;;;3.43;2.63;;;;;;;;;;5018392;28;20057;-58
2021/04/07 00:26:53;;;;;;;2.60;1.60;;;;;;;;;;5017906;28;20037;-60
2021/04/07 00:29:33;;;;;;;2.53;1.87;;;;;;;;;;4999938;28;20033;-56
2021/04/07 00:35:01;;;;;;;;;;;;;;;;;;4998446;28;19906;-59
2021/04/07 00:38:00;;;;;;;2.73;1.83;;;;;;;;;;4998799;28;19925;-58
2021/04/07 00:41:02;;;;;;;2.03;1.13;;;;;;;;;;4967743;28;20108;-58
2021/04/07 00:46:49;;;;;;;4.67;1.77;;;;;;;;;;4987870;28;20038;-58
2021/04/07 00:49:38;;;;;;;4.20;2.73;;;;;;;;;;4998576;28;20117;-58
2021/04/07 00:52:14;;;;;;;2.97;2.13;;;;;;;;;;4998648;28;20042;-59
2021/04/07 00:58:04;;;;;;;2.43;1.93;;;;;;;;;;5040433;28;20096;-60
2021/04/07 01:00:30;;;;;;;3.53;2.15;;;;;;;;;;5042335;28;20044;-59
2021/04/07 01:12:32;;;;;;;2.97;1.57;;;;;;;;;;5057844;28;20049;-59
2021/04/07 01:21:23;;;;;;;3.93;1.80;;;;;;;;;;5051629;28;20375;-56
2021/04/07 01:23:55;;;;;;;7.07;2.03;;;;;;;;;;5058850;28;20032;-58
2021/04/07 01:26:34;;;;;;;;;;;;;;;;;;;;;
2021/04/07 01:32:00;;;;;;;3.07;1.97;;;;;;;;;;5059252;28;20073;-57
2021/04/07 01:34:34;;;;;;;3.65;1.80;;;;;;;;;;5037384;28;20391;-58
2021/04/07 01:37:36;;;;;;;3.27;1.80;;;;;;;;;;5036655;28;20025;-58
2021/04/07 01:40:17;;;;;;;2.80;1.80;;;;;;;;;;4959168;29;20063;-59
2021/04/07 01:43:12;;;;;;;3.42;2.55;;;;;;;;;;5029073;28;20371;-59
2021/04/07 01:45:45;;;;;;;6.47;2.33;;;;;;;;;;5035428;28;20490;-55
2021/04/07 01:51:01;;;;;;;4.03;2.63;;;;;;;;;;5036401;28;20401;-56
2021/04/07 01:53:56;;;;;;;2.60;2.40;;;;;;;;;;5036829;28;20033;-57
2021/04/07 01:56:43;;;;;;;2.57;2.10;;;;;;;;;;5022849;28;20029;-55
2021/04/07 01:59:29;;;;;;;4.67;2.97;;;;;;;;;;5037252;28;20049;-55
2021/04/07 02:02:25;;;;;;;2.87;1.73;;;;;;;;;;5037074;28;20029;-57
2021/04/07 02:05:00;;;;;;;2.97;2.47;;;;;;;;;;5041472;28;20028;-56
2021/04/07 02:07:32;;;;;;;3.43;3.13;;;;;;;;;;5058696;28;20091;-56
2021/04/07 02:10:19;;;;;;;4.40;2.60;;;;;;;;;;5019429;28;20041;-56
2021/04/07 02:13:18;;;;;;;5.83;2.73;;;;;;;;;;5057913;28;20021;-57
2021/04/07 02:15:52;;;;;;;3.37;3.07;;;;;;;;;;5051621;28;20075;-57
2021/04/07 02:18:21;;;;;;;4.30;3.37;;;;;;;;;;5037890;28;20129;-56
2021/04/07 02:20:55;;;;;;;3.63;3.03;;;;;;;;;;5058028;28;20029;-55
2021/04/07 02:23:51;;;;;;;4.03;2.80;;;;;;;;;;5057928;28;20352;-56
2021/04/07 02:29:25;;;;;;;5.17;2.97;;;;;;;;;;5058492;28;20132;-57
2021/04/07 02:32:11;;;;;;;;;;;;;;;;;;;;;
2021/04/07 02:40:36;;;;;;;4.67;3.27;;;;;;;;;;5047123;28;20076;-59
2021/04/07 02:43:37;;;;;;;3.97;3.00;;;;;;;;;;5040529;28;20037;-59
2021/04/07 02:46:15;;;;;;;4.67;3.40;;;;;;;;;;5058086;28;20535;-59
2021/04/07 02:49:33;;;;;;;3.13;2.37;;;;;;;;;;5040071;28;20131;-59
2021/04/07 02:52:25;;;;;;;2.73;2.50;;;;;;;;;;5057053;28;20040;-59
2021/04/07 02:55:10;;;;;;;7.83;4.07;;;;;;;;;;5058460;28;20108;-59
2021/04/07 02:58:15;;;;;;;4.20;2.80;;;;;;;;;;5058115;28;20033;-59
2021/04/07 03:06:53;;;;;;;6.50;3.57;;;;;;;;;;5056430;28;20033;-59
2021/04/07 03:15:04;;;;;;;5.57;2.93;;;;;;;;;;5057976;28;20444;-56
2021/04/07 03:20:51;;;;;;;6.90;3.40;;;;;;;;;;5057619;28;20044;-58
2021/04/07 03:23:39;;;;;;;3.47;3.07;;;;;;;;;;5058147;28;20724;-59
2021/04/07 03:26:25;;;;;;;4.17;3.33;;;;;;;;;;5057537;28;20044;-59
2021/04/07 03:29:00;;;;;;;3.97;2.40;;;;;;;;;;5057091;28;20030;-58
2021/04/07 03:31:32;;;;;;;4.47;3.57;;;;;;;;;;5055228;28;20043;-58
2021/04/07 03:34:18;;;;;;;6.07;3.60;;;;;;;;;;5052933;28;20032;-58
2021/04/07 03:36:45;;;;;;;4.63;3.80;;;;;;;;;;5053622;28;20398;-59
2021/04/07 03:39:18;;;;;;;11.00;3.57;;;;;;;;;;5049662;28;20040;-59
2021/04/07 03:42:03;;;;;;;3.60;2.63;;;;;;;;;;5035760;28;20033;-58
2021/04/07 03:44:34;;;;;;;3.07;2.67;;;;;;;;;;5035265;28;20513;-59
2021/04/07 03:47:42;;;;;;;;;;;;;;;;;;;;;
2021/04/07 03:52:58;;;;;;;4.50;2.73;;;;;;;;;;5056150;28;20387;-59
2021/04/07 03:58:37;;;;;;;2.83;2.30;;;;;;;;;;5057257;28;20037;-59
2021/04/07 04:01:18;;;;;;;3.13;2.10;;;;;;;;;;5057506;28;20028;-59
2021/04/07 04:03:51;;;;;;;2.77;2.33;;;;;;;;;;5039135;28;20136;-59
2021/04/07 04:06:47;;;;;;;6.37;4.43;;;;;;;;;;5057394;28;20025;-59
2021/04/07 04:12:39;;;;;;;6.23;3.13;;;;;;;;;;5056537;28;20151;-56
2021/04/07 04:15:32;;;;;;;5.47;3.43;;;;;;;;;;5038899;28;20071;-57
2021/04/07 04:18:17;;;;;;;6.07;2.77;;;;;;;;;;5020667;28;20033;-56
2021/04/07 04:21:31;;;;;;;5.37;2.53;;;;;;;;;;5055017;28;20057;-56
2021/04/07 04:24:04;;;;;;;3.20;1.73;;;;;;;;;;5056246;28;20035;-57
2021/04/07 04:26:43;;;;;;;2.73;2.23;;;;;;;;;;5052614;28;20045;-57
2021/04/07 04:29:22;;;;;;;4.23;2.40;;;;;;;;;;5055725;28;20111;-56
2021/04/07 04:38:03;;;;;;;3.70;2.57;;;;;;;;;;5051725;28;20044;-57
2021/04/07 04:40:46;;;;;;;;;;;;;;;;;;;;;
2021/04/07 04:43:13;;;;;;;5.47;2.60;;;;;;;;;;5028074;28;20043;-56
2021/04/07 04:46:08;;;;;;;2.27;1.37;;;;;;;;;;5055931;28;20029;-56
2021/04/07 04:48:43;;;;;;;8.73;3.47;;;;;;;;;;5007857;28;20033;-56
2021/04/07 04:54:08;;;;;;;2.40;1.70;;;;;;;;;;5044649;28;20033;-56
2021/04/07 04:56:51;;;;;;;;;;;;;;;;;;;;;
2021/04/07 04:59:35;;;;;;;3.70;1.70;;;;;;;;;;5043416;28;20398;-56
2021/04/07 05:05:22;;;;;;;4.97;1.87;;;;;;;;;;5041606;28;20032;-56
2021/04/07 05:11:04;;;;;;;3.10;1.93;;;;;;;;;;4990558;28;20041;-58
2021/04/07 05:13:51;;;;;;;2.13;1.40;;;;;;;;;;5054732;28;20028;-59
2021/04/07 05:26:06;;;;;;;5.70;2.27;;;;;;;;;;5054620;28;20139;-59
2021/04/07 05:28:50;;;;;;;;;;;;;;;;;;;;;
2021/04/07 05:31:36;;;;;;;;;;;;;;;;;;;;;
2021/04/07 05:34:09;;;;;;;3.40;2.27;;;;;;;;;;5049456;28;20041;-59
2021/04/07 05:36:49;;;;;;;2.30;1.60;;;;;;;;;;5055926;28;20031;-59
2021/04/07 05:39:16;;;;;;;;;;;;;;;;;;5054499;28;20060;-59
2021/04/07 05:44:55;;;;;;;1.57;1.13;;;;;;;;;;5020747;28;20032;-58
2021/04/07 05:50:23;;;;;;;3.53;1.33;;;;;;;;;;5046136;28;20041;-59
2021/04/07 05:53:00;;;;;;;1.60;1.03;;;;;;;;;;5054865;28;20025;-59
2021/04/07 05:55:47;;;;;;;2.17;1.27;;;;;;;;;;5054988;28;20033;-59
2021/04/07 05:58:39;;;;;;;4.90;2.10;;;;;;;;;;5054645;28;20025;-59
2021/04/07 06:01:12;;;;;;;3.70;2.23;;;;;;;;;;5027201;28;20037;-59
2021/04/07 06:03:56;;;;;;;2.80;1.97;;;;;;;;;;5054382;28;20025;-58
2021/04/07 06:07:01;;;;;;;3.83;1.57;;;;;;;;;;5054070;28;20036;-60
2021/04/07 06:09:33;;;;;;;3.23;2.13;;;;;;;;;;4973341;28;20366;-58
2021/04/07 06:12:19;;;;;;;;;;;;;;;;;;;;;
2021/04/07 06:15:14;;;;;;;4.67;1.20;;;;;;;;;;5054392;28;20029;-58
2021/04/07 06:20:46;;;;;;;4.90;2.70;;;;;;;;;;5054449;28;20047;-59
2021/04/07 06:23:54;;;;;;;5.83;1.37;;;;;;;;;;5035007;28;20040;-59
2021/04/07 06:33:31;;;;;;;2.20;1.30;;;;;;;;;;5042952;28;20479;-59
2021/04/07 06:35:26;;;;;;;;;;;;;;;;;;5041144;28;20028;-58
2021/04/07 06:37:54;;;;;;;4.77;1.37;;;;;;;;;;5057723;28;19905;-58
2021/04/07 06:40:31;;;;;;;2.27;1.33;;;;;;;;;;5057398;28;20086;-56
2021/04/07 06:43:30;;;;;;;1.40;0.77;;;;;;;;;;5024199;28;20029;-58
2021/04/07 06:46:08;;;;;;;2.23;1.73;;;;;;;;;;5042414;28;20035;-58
2021/04/07 06:48:50;;;;;;;3.60;1.80;;;;;;;;;;5057347;28;20335;-58
2021/04/07 06:54:32;;;;;;;4.13;2.00;;;;;;;;;;4996294;28;20053;-57
2021/04/07 06:57:27;;;;;;;3.80;1.10;;;;;;;;;;4996246;28;20050;-58
2021/04/07 07:00:08;;;;;;;2.80;1.53;;;;;;;;;;5047255;28;20376;-58
2021/04/07 07:03:02;;;;;;;2.27;1.43;;;;;;;;;;5057701;28;20428;-58
2021/04/07 07:09:02;;;;;;;2.27;1.50;;;;;;;;;;5057174;28;20040;-57
2021/04/07 07:11:34;;;;;;;;;;;;;;;;;;5053718;28;20068;-56
2021/04/07 07:14:04;;;;;;;2.03;1.00;;;;;;;;;;5056832;28;19905;-58
2021/04/07 07:17:03;;;;;;;3.15;1.35;;;;;;;;;;5039663;28;20082;-58
2021/04/07 07:19:43;;;;;;;2.17;1.60;;;;;;;;;;5057989;28;20091;-56
2021/04/07 07:22:13;;;;;;;;;;;;;;;;;;5058464;28;20102;-56
2021/04/07 07:25:08;;;;;;;;;;;;;;;;;;;;;
2021/04/07 07:28:04;;;;;;;4.00;1.20;;;;;;;;;;5060095;28;20101;-55
2021/04/07 07:30:56;;;;;;;4.67;1.67;;;;;;;;;;5024744;28;20052;-55
2021/04/07 07:34:03;;;;;;;2.23;1.33;;;;;;;;;;5061688;28;20104;-55
2021/04/07 07:36:59;;;;;;;3.93;2.10;;;;;;;;;;5060965;28;20043;-57
2021/04/07 07:39:58;;;;;;;1.70;1.40;;;;;;;;;;5006969;28;20052;-56
2021/04/07 07:42:27;;;;;;;1.60;1.10;;;;;;;;;;5061179;28;20445;-55
2021/04/07 07:44:54;;;;;;;2.13;1.17;;;;;;;;;;5045098;28;20041;-56
2021/04/07 07:47:40;;;;;;;2.57;1.40;;;;;;;;;;5060888;28;20036;-56
2021/04/07 07:53:37;;;;;;;1.60;1.05;;;;;;;;;;5059743;28;20043;-56
2021/04/07 07:56:43;;;;;;;2.07;1.30;;;;;;;;;;5059682;28;20024;-54
2021/04/07 07:59:00;;;;;;;2.37;2.07;;;;;;;;;;5053292;28;20096;-55
2021/04/07 08:01:49;;;;;;;1.90;0.97;;;;;;;;;;5059451;28;20128;-55
2021/04/07 08:04:47;;;;;;;2.10;1.27;;;;;;;;;;5059499;28;20029;-55
2021/04/07 08:07:35;;;;;;;1.60;1.00;;;;;;;;;;5029978;28;20029;-57
2021/04/07 08:10:12;;;;;;;8.23;2.20;;;;;;;;;;5059462;28;20025;-56
2021/04/07 08:12:58;;;;;;;;;;;;;;;;;;;;;
2021/04/07 08:15:37;;;;;;;2.50;1.20;;;;;;;;;;5060031;28;20138;-53
2021/04/07 08:18:17;;;;;;;3.23;1.13;;;;;;;;;;5060256;28;20451;-55
2021/04/07 08:20:59;;;;;;;4.53;1.10;;;;;;;;;;5060430;28;20025;-56
2021/04/07 08:23:53;;;;;;;2.60;1.63;;;;;;;;;;5059846;28;20526;-57
2021/04/07 08:26:43;;;;;;;4.93;1.67;;;;;;;;;;5059311;28;20053;-56
2021/04/07 08:32:26;;;;;;;1.87;1.17;;;;;;;;;;5048098;28;20303;-53
2021/04/07 08:35:02;;;;;;;3.47;1.30;;;;;;;;;;5060790;28;20025;-57
2021/04/07 08:37:36;;;;;;;2.47;1.53;;;;;;;;;;5059685;28;20053;-56
2021/04/07 08:40:44;;;;;;;4.23;1.33;;;;;;;;;;5059015;28;20104;-56
2021/04/07 08:43:22;;;;;;;1.63;0.77;;;;;;;;;;4961568;28;20039;-55
2021/04/07 08:45:53;;;;;;;1.80;1.20;;;;;;;;;;4978200;28;20027;-56
2021/04/07 08:51:24;;;;;;;1.90;1.13;;;;;;;;;;5024936;28;20094;-54
2021/04/07 08:57:26;;;;;;;3.57;1.47;;;;;;;;;;5044426;28;20037;-56
2021/04/07 09:00:27;;;;;;;1.20;0.60;;;;;;;;;;5058406;28;20032;-55
2021/04/07 09:03:01;;;;;;;1.50;1.00;;;;;;;;;;5058517;28;20048;-56
2021/04/07 09:05:46;;;;;;;1.50;1.03;;;;;;;;;;5037263;28;20036;-57
2021/04/07 09:08:41;;;;;;;3.20;1.87;;;;;;;;;;5042645;28;20044;-56
2021/04/07 09:11:49;;;;;;;;;;;;;;;;;;;;;
2021/04/07 09:14:53;;;;;;;5.73;1.47;;;;;;;;;;5056509;28;20125;-54
2021/04/07 09:17:43;;;;;;;2.20;1.47;;;;;;;;;;5033517;28;20045;-57
2021/04/07 09:20:40;;;;;;;5.03;1.13;;;;;;;;;;5015960;28;20479;-57
2021/04/07 09:29:07;;;;;;;4.43;2.10;;;;;;;;;;5033110;28;20033;-56
2021/04/07 09:31:52;;;;;;;3.63;1.93;;;;;;;;;;5016340;28;20139;-56
2021/04/07 09:34:41;;;;;;;3.93;1.57;;;;;;;;;;5033066;28;20080;-55
2021/04/07 09:37:16;;;;;;;2.87;1.37;;;;;;;;;;5032904;28;20025;-56
2021/04/07 09:39:54;;;;;;;7.97;3.23;;;;;;;;;;5032815;28;20052;-52
2021/04/07 09:45:35;;;;;;;6.32;1.30;;;;;;;;;;5031926;28;20045;-56
2021/04/07 09:48:03;;;;;;;;;;;;;;;;;;5041510;28;20040;-56
2021/04/07 09:50:55;;;;;;;2.07;1.57;;;;;;;;;;5053191;28;19916;-56
2021/04/07 09:53:48;;;;;;;3.93;1.77;;;;;;;;;;5054679;28;20067;-56
2021/04/07 09:56:31;;;;;;;2.03;0.93;;;;;;;;;;5050378;28;20049;-55
2021/04/07 09:59:18;;;;;;;3.17;1.97;;;;;;;;;;5054633;28;20467;-57
2021/04/07 10:02:04;;;;;;;3.03;1.80;;;;;;;;;;5046696;28;20041;-56
2021/04/07 10:07:35;;;;;;;2.70;1.37;;;;;;;;;;5054002;28;20033;-54
2021/04/07 10:16:26;;;;;;;1.73;1.03;;;;;;;;;;5043383;28;20025;-56
2021/04/07 10:22:13;;;;;;;2.30;1.20;;;;;;;;;;5054057;28;20426;-57
2021/04/07 10:25:10;;;;;;;3.95;1.70;;;;;;;;;;5036777;28;20033;-55
2021/04/07 10:27:53;;;;;;;7.63;1.70;;;;;;;;;;5021931;28;20255;-53
2021/04/07 10:30:34;;;;;;;2.33;1.33;;;;;;;;;;5023031;28;20037;-57
2021/04/07 10:36:23;;;;;;;2.08;0.90;;;;;;;;;;5037677;28;20138;-54
2021/04/07 10:39:04;;;;;;;2.77;1.47;;;;;;;;;;5052785;28;20056;-56
2021/04/07 10:41:53;;;;;;;2.43;1.63;;;;;;;;;;5053960;28;20147;-56
2021/04/07 10:45:07;;;;;;;7.17;2.17;;;;;;;;;;5054299;28;20059;-55
2021/04/07 10:47:52;;;;;;;2.83;1.73;;;;;;;;;;4953163;29;20043;-57
2021/04/07 10:50:57;;;;;;;5.27;1.63;;;;;;;;;;4957685;28;20063;-56
2021/04/07 10:53:58;;;;;;;1.60;1.10;;;;;;;;;;5052429;28;20045;-56
2021/04/07 10:56:24;;;;;;;;;;;;;;;;;;4953274;29;20078;-56
2021/04/07 10:59:01;;;;;;;5.33;1.53;;;;;;;;;;4967912;28;19904;-56
2021/04/07 11:01:39;;;;;;;1.73;1.13;;;;;;;;;;5036154;28;20029;-54
2021/04/07 11:04:31;;;;;;;2.00;1.07;;;;;;;;;;5026415;28;20037;-55
2021/04/07 11:07:06;;;;;;;1.80;1.33;;;;;;;;;;5050554;28;20037;-56
2021/04/07 11:09:55;;;;;;;2.57;1.53;;;;;;;;;;5053167;28;20037;-56
2021/04/07 11:12:33;;;;;;;2.30;0.60;;;;;;;;;;5035742;28;20110;-52
2021/04/07 11:24:12;;;;;;;1.90;1.00;;;;;;;;;;5053389;28;20040;-55
2021/04/07 11:27:02;;;;;;;4.90;1.53;;;;;;;;;;5051927;28;20041;-55
2021/04/07 11:29:41;;;;;;;4.87;1.80;;;;;;;;;;5052463;28;20378;-57
2021/04/07 11:32:37;;;;;;;3.33;1.23;;;;;;;;;;5025753;28;20471;-53
2021/04/07 11:35:26;;;;;;;4.00;1.67;;;;;;;;;;5037191;28;20029;-56
2021/04/07 11:46:59;;;;;;;3.13;1.33;;;;;;;;;;5052638;28;20113;-56
2021/04/07 11:52:31;;;;;;;2.58;1.35;;;;;;;;;;5036826;28;20048;-56
2021/04/07 11:54:59;;;;;;;3.13;1.53;;;;;;;;;;5034556;28;20037;-53
2021/04/07 11:57:28;;;;;;;2.23;1.40;;;;;;;;;;5052232;28;20032;-55
2021/04/07 12:00:33;;;;;;;3.28;1.55;;;;;;;;;;5034923;28;20068;-57
2021/04/07 12:03:03;;;;;;;7.53;1.30;;;;;;;;;;5052082;28;20039;-57
2021/04/07 12:06:31;;;;;;;3.47;1.30;;;;;;;;;;5052224;28;20025;-56
2021/04/07 12:09:08;;;;;;;4.10;1.53;;;;;;;;;;5049188;28;20037;-55
2021/04/07 12:14:38;;;;;;;;;;;;;;;;;;5056282;28;20471;-55
2021/04/07 12:17:10;;;;;;;2.83;1.27;;;;;;;;;;5056805;28;20354;-56
2021/04/07 12:20:02;;;;;;;1.80;0.97;;;;;;;;;;5056204;28;20374;-53
2021/04/07 12:22:29;;;;;;;4.33;0.67;;;;;;;;;;5038185;28;20036;-56
2021/04/07 12:25:20;;;;;;;2.30;1.33;;;;;;;;;;5055866;28;20503;-53
2021/04/07 12:27:59;;;;;;;4.53;1.23;;;;;;;;;;5055781;28;20517;-56
2021/04/07 12:30:51;;;;;;;4.33;1.17;;;;;;;;;;5056615;28;20029;-53
2021/04/07 12:33:21;;;;;;;2.63;1.20;;;;;;;;;;5056122;28;20477;-56
2021/04/07 12:36:08;;;;;;;2.22;1.05;;;;;;;;;;5037069;28;20060;-56
2021/04/07 12:38:47;;;;;;;4.63;1.60;;;;;;;;;;5055591;28;20075;-54
2021/04/07 12:44:17;;;;;;;;;;;;;;;;;;;;;
2021/04/07 12:46:58;;;;;;;9.67;1.30;;;;;;;;;;5055746;28;20542;-56
2021/04/07 12:49:49;;;;;;;;;;;;;;;;;;;;;
2021/04/07 12:52:21;;;;;;;2.67;0.80;;;;;;;;;;5053398;28;20064;-55
2021/04/07 12:55:08;;;;;;;3.20;1.23;;;;;;;;;;5055996;28;20467;-54
2021/04/07 12:57:37;;;;;;;2.13;0.80;;;;;;;;;;5055641;28;20039;-56
2021/04/07 13:00:39;;;;;;;;;;;;;;;;;;;;;
2021/04/07 13:03:54;;;;;;;1.30;0.80;;;;;;;;;;5050666;28;20037;-54
2021/04/07 13:07:11;;;;;;;3.43;1.63;;;;;;;;;;5053936;28;20343;-56
2021/04/07 13:12:51;;;;;;;;;;;;;;;;;;;;;
2021/04/07 13:15:40;;;;;;;1.80;0.67;;;;;;;;;;5052271;28;20127;-56
2021/04/07 13:21:23;;;;;;;3.33;1.13;;;;;;;;;;5031245;28;20031;-55
2021/04/07 13:23:49;;;;;;;;;;;;;;;;;;5056381;28;20025;-56
2021/04/07 13:29:09;;;;;;;2.10;1.23;;;;;;;;;;5035370;28;20111;-54
2021/04/07 13:32:18;;;;;;;3.33;1.53;;;;;;;;;;5034540;28;20479;-56
2021/04/07 13:35:19;;;;;;;2.13;1.10;;;;;;;;;;5019069;28;20025;-56
2021/04/07 13:40:38;;;;;;;3.97;1.70;;;;;;;;;;5034864;28;20032;-54
2021/04/07 13:43:19;;;;;;;5.70;1.92;;;;;;;;;;5031626;28;20033;-53
2021/04/07 13:46:03;;;;;;;6.28;1.65;;;;;;;;;;5027706;28;20043;-56
2021/04/07 13:48:40;;;;;;;4.23;1.37;;;;;;;;;;5034073;28;20033;-54
2021/04/07 13:51:16;;;;;;;3.90;2.03;;;;;;;;;;5033759;28;20398;-56
2021/04/07 13:53:47;;;;;;;2.73;1.07;;;;;;;;;;5034484;28;20022;-52
2021/04/07 13:59:10;;;;;;;4.00;1.30;;;;;;;;;;5034200;28;20075;-54
2021/04/07 14:01:46;;;;;;;2.90;1.43;;;;;;;;;;5033835;28;20430;-55
2021/04/07 14:04:34;;;;;;;4.57;2.33;;;;;;;;;;5014006;28;20068;-54
2021/04/07 14:06:59;;;;;;;6.07;0.97;;;;;;;;;;5033567;28;20037;-56
2021/04/07 14:09:53;;;;;;;2.90;1.40;;;;;;;;;;5033562;28;20152;-54
2021/04/07 14:12:53;;;;;;;;;;;;;;;;;;;;;
2021/04/07 14:15:30;;;;;;;6.97;1.90;;;;;;;;;;5034270;28;20021;-54
2021/04/07 14:18:03;;;;;;;3.37;1.67;;;;;;;;;;5033865;28;20045;-56
2021/04/07 14:20:56;;;;;;;3.63;0.87;;;;;;;;;;5033721;28;20435;-53
2021/04/07 14:23:42;;;;;;;4.33;2.23;;;;;;;;;;5034245;28;20036;-57
2021/04/07 14:26:15;;;;;;;1.03;0.63;;;;;;;;;;5033020;28;20031;-53
2021/04/07 14:31:50;;;;;;;6.97;1.05;;;;;;;;;;5042970;28;20037;-52
2021/04/07 14:34:37;;;;;;;3.10;1.33;;;;;;;;;;5015292;28;20437;-55
2021/04/07 14:37:26;;;;;;;2.07;1.40;;;;;;;;;;5030994;28;20042;-53
2021/04/07 14:40:13;;;;;;;2.30;1.20;;;;;;;;;;5032061;28;20378;-55
2021/04/07 14:43:22;;;;;;;2.80;1.40;;;;;;;;;;5031873;28;20060;-54
2021/04/07 14:45:54;;;;;;;2.47;1.10;;;;;;;;;;5030631;28;20588;-55
2021/04/07 14:48:32;;;;;;;2.53;0.83;;;;;;;;;;5031640;28;20092;-57
2021/04/07 14:51:02;;;;;;;3.67;1.07;;;;;;;;;;5031353;28;20038;-54
2021/04/07 14:53:42;;;;;;;3.80;1.23;;;;;;;;;;5030822;28;20098;-57
2021/04/07 14:56:44;;;;;;;;;;;;;;;;;;;;;
2021/04/07 14:59:39;;;;;;;2.67;1.10;;;;;;;;;;5028387;28;20030;-57
2021/04/07 15:02:48;;;;;;;2.03;1.10;;;;;;;;;;4991783;28;20069;-56
2021/04/07 15:05:34;;;;;;;3.27;2.00;;;;;;;;;;5034684;28;20475;-56
2021/04/07 15:08:33;;;;;;;;;;;;;;;;;;;;;
2021/04/07 15:11:35;;;;;;;2.73;1.87;;;;;;;;;;5049621;28;20046;-56
2021/04/07 15:17:23;;;;;;;4.10;1.40;;;;;;;;;;5053149;28;20446;-56
2021/04/07 15:20:07;;;;;;;2.47;1.57;;;;;;;;;;5053746;28;20471;-56
2021/04/07 15:22:49;;;;;;;2.33;1.40;;;;;;;;;;5035737;28;20037;-57
2021/04/07 15:31:13;;;;;;;2.50;1.43;;;;;;;;;;5053286;28;20072;-56
2021/04/07 15:33:57;;;;;;;2.67;1.73;;;;;;;;;;5053627;28;20048;-57
2021/04/07 15:36:39;;;;;;;3.83;1.73;;;;;;;;;;5036186;28;20522;-57
2021/04/07 15:39:27;;;;;;;8.37;2.17;;;;;;;;;;5053438;28;20024;-55
2021/04/07 15:41:57;;;;;;;2.43;1.57;;;;;;;;;;5052310;28;20072;-55
2021/04/07 15:44:41;;;;;;;;;;;;;;;;;;;;;
2021/04/07 15:47:22;;;;;;;2.90;1.77;;;;;;;;;;5052916;28;20435;-54
2021/04/07 15:53:08;;;;;;;8.98;2.30;;;;;;;;;;5056632;28;20041;-55
2021/04/07 15:55:38;;;;;;;2.30;1.43;;;;;;;;;;5056767;28;20083;-54
2021/04/07 15:58:16;;;;;;;3.60;1.70;;;;;;;;;;5038050;28;20442;-55
2021/04/07 16:01:08;;;;;;;4.77;2.00;;;;;;;;;;5038714;28;20421;-56
2021/04/07 16:03:34;;;;;;;4.83;2.10;;;;;;;;;;5044884;28;20033;-56
2021/04/07 16:06:08;;;;;;;4.60;2.83;;;;;;;;;;5022106;28;20037;-56
2021/04/07 16:09:04;;;;;;;6.37;2.70;;;;;;;;;;5056973;28;20033;-57
2021/04/07 16:11:38;;;;;;;4.33;2.97;;;;;;;;;;5057852;28;20044;-57
2021/04/07 16:14:39;;;;;;;;;;;;;;;;;;;;;
2021/04/07 16:17:16;;;;;;;3.03;1.77;;;;;;;;;;5045680;28;20120;-57
2021/04/07 16:19:47;;;;;;;5.70;2.03;;;;;;;;;;5057074;28;20017;-55
2021/04/07 16:22:32;;;;;;;6.73;1.40;;;;;;;;;;5039489;28;20036;-55
2021/04/07 16:28:02;;;;;;;2.83;2.30;;;;;;;;;;5033265;28;20098;-55
2021/04/07 16:30:47;;;;;;;3.17;2.23;;;;;;;;;;5057022;28;20072;-55
2021/04/07 16:33:22;;;;;;;3.93;2.80;;;;;;;;;;5024327;28;20491;-55
2021/04/07 16:36:03;;;;;;;2.30;1.67;;;;;;;;;;5038490;28;20053;-56
2021/04/07 16:41:58;;;;;;;2.53;1.90;;;;;;;;;;5055911;28;20033;-54
2021/04/07 16:44:49;;;;;;;2.73;2.07;;;;;;;;;;5038698;28;20037;-57
2021/04/07 16:48:01;;;;;;;;;;;;;;;;;;;;;
2021/04/07 16:50:33;;;;;;;;;;;;;;;;;;5004561;28;20101;-55
2021/04/07 16:53:09;;;;;;;2.47;1.97;;;;;;;;;;5033788;28;19999;-56
2021/04/07 16:56:03;;;;;;;4.73;2.80;;;;;;;;;;5056562;28;20112;-55
2021/04/07 16:58:41;;;;;;;2.90;1.83;;;;;;;;;;5053268;28;20039;-56
2021/04/07 17:04:27;;;;;;;5.20;1.83;;;;;;;;;;5026180;28;20075;-56
2021/04/07 17:07:06;;;;;;;2.47;1.90;;;;;;;;;;5055734;28;20033;-55
2021/04/07 17:10:02;;;;;;;3.97;2.00;;;;;;;;;;5055322;28;20029;-57
2021/04/07 17:18:26;;;;;;;3.37;2.57;;;;;;;;;;5055140;28;20082;-56
2021/04/07 17:24:21;;;;;;;2.37;1.93;;;;;;;;;;4983480;28;20189;-56
2021/04/07 17:27:02;;;;;;;7.50;2.27;;;;;;;;;;5014090;28;20037;-55
2021/04/07 17:29:31;;;;;;;;;;;;;;;;;;5042364;28;20056;-55
2021/04/07 17:32:29;;;;;;;5.90;2.73;;;;;;;;;;5061180;28;19909;-54
2021/04/07 17:35:23;;;;;;;5.13;2.13;;;;;;;;;;5038939;28;20363;-53
2021/04/07 17:40:51;;;;;;;5.37;3.47;;;;;;;;;;5044006;28;20352;-55
2021/04/07 17:46:22;;;;;;;4.27;2.93;;;;;;;;;;5005524;28;20044;-56
2021/04/07 17:48:58;;;;;;;3.93;2.47;;;;;;;;;;5060642;28;20029;-55
2021/04/07 17:54:46;;;;;;;5.30;3.70;;;;;;;;;;5061794;28;20045;-56
2021/04/07 17:57:42;;;;;;;11.10;4.77;;;;;;;;;;5038956;28;20045;-56
2021/04/07 18:00:23;;;;;;;8.83;2.37;;;;;;;;;;5034134;28;20053;-55
2021/04/07 18:06:07;;;;;;;4.53;2.70;;;;;;;;;;5012472;28;20185;-54
2021/04/07 18:09:02;;;;;;;;;;;;;;;;;;;;;
2021/04/07 18:11:43;;;;;;;3.07;2.47;;;;;;;;;;5011729;28;20026;-57
2021/04/07 18:14:34;;;;;;;;;;;;;;;;;;;;;
2021/04/07 18:17:34;;;;;;;5.78;4.35;;;;;;;;;;5008594;28;20036;-55
2021/04/07 18:20:06;;;;;;;3.80;2.90;;;;;;;;;;5007828;28;20036;-53
2021/04/07 18:22:59;;;;;;;;;;;;;;;;;;;;;
2021/04/07 18:25:43;;;;;;;3.67;2.70;;;;;;;;;;5052743;28;20097;-55
2021/04/07 18:28:22;;;;;;;4.93;3.27;;;;;;;;;;5039370;28;20024;-55
2021/04/07 18:31:13;;;;;;;4.40;2.50;;;;;;;;;;5036211;28;20604;-52
2021/04/07 18:33:47;;;;;;;5.57;2.53;;;;;;;;;;5053616;28;20119;-55
2021/04/07 18:36:43;;;;;;;3.37;2.63;;;;;;;;;;5036975;28;20162;-56
2021/04/07 18:39:36;;;;;;;5.80;3.53;;;;;;;;;;5036571;28;20029;-57
2021/04/07 18:42:21;;;;;;;6.37;3.33;;;;;;;;;;5053049;28;20104;-56
2021/04/07 18:44:50;;;;;;;6.53;4.27;;;;;;;;;;5053348;28;20339;-55
2021/04/07 18:47:22;;;;;;;4.60;2.73;;;;;;;;;;5052981;28;20029;-55
2021/04/07 18:50:06;;;;;;;14.43;3.47;;;;;;;;;;5048000;28;20157;-57
2021/04/07 18:52:38;;;;;;;6.73;3.23;;;;;;;;;;5053861;28;20048;-52
2021/04/07 18:55:10;;;;;;;4.13;2.10;;;;;;;;;;5035327;28;20036;-56
2021/04/07 18:58:00;;;;;;;8.93;5.33;;;;;;;;;;5053645;28;20374;-57
2021/04/07 19:00:56;;;;;;;;;;;;;;;;;;;;;
2021/04/07 19:06:40;;;;;;;4.27;3.13;;;;;;;;;;5011242;28;20140;-56
2021/04/07 19:09:43;;;;;;;;;;;;;;;;;;;;;
2021/04/07 19:12:14;;;;;;;3.43;2.83;;;;;;;;;;4992013;28;20052;-54
2021/04/07 19:14:55;;;;;;;6.43;2.63;;;;;;;;;;5011311;28;20041;-54
2021/04/07 19:23:47;;;;;;;3.70;2.67;;;;;;;;;;5014528;28;20475;-57
2021/04/07 19:26:25;;;;;;;4.87;2.53;;;;;;;;;;5015033;28;20152;-55
2021/04/07 19:32:24;;;;;;;6.00;3.13;;;;;;;;;;5057209;28;20041;-56
2021/04/07 19:35:03;;;;;;;4.73;2.07;;;;;;;;;;5005398;28;20123;-57
2021/04/07 19:38:01;;;;;;;5.20;2.57;;;;;;;;;;5056366;28;20382;-54
2021/04/07 19:41:01;;;;;;;3.10;1.93;;;;;;;;;;5056466;28;20033;-56
2021/04/07 19:43:48;;;;;;;;;;;;;;;;;;;;;
2021/04/07 19:46:26;;;;;;;5.37;2.80;;;;;;;;;;5054938;28;20037;-54
2021/04/07 19:52:25;;;;;;;;;;;;;;;;;;;;;
2021/04/07 19:54:54;;;;;;;3.10;2.28;;;;;;;;;;5057471;28;20088;-57
2021/04/07 20:03:43;;;;;;;8.27;5.43;;;;;;;;;;5056995;28;20033;-53
2021/04/07 20:06:31;;;;;;;6.73;4.80;;;;;;;;;;5039796;28;20021;-55
2021/04/07 20:09:23;;;;;;;7.27;5.07;;;;;;;;;;5057180;28;20025;-55
2021/04/07 20:12:15;;;;;;;7.87;4.60;;;;;;;;;;5056605;28;20577;-53
2021/04/07 20:14:51;;;;;;;3.97;3.43;;;;;;;;;;5058060;28;20029;-54
2021/04/07 20:17:47;;;;;;;6.77;3.30;;;;;;;;;;5054872;28;20501;-56
2021/04/07 20:20:36;;;;;;;4.20;2.77;;;;;;;;;;5057440;28;20025;-55
2021/04/07 20:23:53;;;;;;;4.20;2.45;;;;;;;;;;5057369;28;20025;-56
2021/04/07 20:26:50;;;;;;;5.00;2.27;;;;;;;;;;5055415;28;20044;-55
2021/04/07 20:29:43;;;;;;;2.13;1.53;;;;;;;;;;5038609;28;20044;-55
2021/04/07 20:32:23;;;;;;;5.97;3.43;;;;;;;;;;5008559;28;20108;-54
2021/04/07 20:34:56;;;;;;;3.42;1.98;;;;;;;;;;5038894;28;20033;-56
2021/04/07 20:37:49;;;;;;;3.90;2.60;;;;;;;;;;5057262;28;20021;-53
2021/04/07 20:40:34;;;;;;;3.97;2.23;;;;;;;;;;5056700;28;20391;-56
2021/04/07 20:43:12;;;;;;;8.53;2.67;;;;;;;;;;5057326;28;20434;-57
2021/04/07 20:45:50;;;;;;;5.33;3.50;;;;;;;;;;5016313;28;20040;-54
2021/04/07 20:48:32;;;;;;;;;;;;;;;;;;;;;
2021/04/07 20:51:20;;;;;;;3.10;2.03;;;;;;;;;;5058394;28;20499;-57
2021/04/07 20:54:19;;;;;;;4.27;2.50;;;;;;;;;;5056753;28;20421;-56
2021/04/07 21:00:07;;;;;;;;;;;;;;;;;;;;;
2021/04/07 21:03:09;;;;;;;4.73;2.23;;;;;;;;;;5058431;28;20124;-55
2021/04/07 21:05:45;;;;;;;3.70;2.23;;;;;;;;;;5061607;28;20036;-55
2021/04/07 21:08:29;;;;;;;2.63;1.97;;;;;;;;;;5043871;28;20040;-54
2021/04/07 21:11:05;;;;;;;5.20;3.53;;;;;;;;;;5060847;28;20040;-52
2021/04/07 21:16:51;;;;;;;2.33;1.70;;;;;;;;;;5051968;28;20075;-56
2021/04/07 21:22:34;;;;;;;3.53;2.37;;;;;;;;;;5023360;28;20141;-55
2021/04/07 21:25:38;;;;;;;;;;;;;;;;;;;;;
2021/04/07 21:28:21;;;;;;;;;;;;;;;;;;;;;